sensor_id;sensor_type;location;lat;lon;timestamp;temperature;humidity
23637;DHT22;11995;50.842;4.456;2022-11-15T00:00:34;11.30;99.90
23637;DHT22;11995;50.842;4.456;2022-11-15T00:05:42;11.40;99.90
23637;DHT22;11995;50.842;4.456;2022-11-15T00:08:16;11.40;99.90
23637;DHT22;11995;50.842;4.456;2022-11-15T00:11:03;11.40;99.90
23637;DHT22;11995;50.842;4.456;2022-11-15T00:13:26;11.40;99.90
23637;DHT22;11995;50.842;4.456;2022-11-15T00:16:01;11.30;99.90
23637;DHT22;11995;50.842;4.456;2022-11-15T00:18:38;11.50;99.90
23637;DHT22;11995;50.842;4.456;2022-11-15T00:21:10;11.50;99.90
23637;DHT22;11995;50.842;4.456;2022-11-15T00:23:42;11.50;99.90
23637;DHT22;11995;50.842;4.456;2022-11-15T00:28:51;11.50;99.90
23637;DHT22;11995;50.842;4.456;2022-11-15T00:31:31;11.50;99.90
23637;DHT22;11995;50.842;4.456;2022-11-15T00:34:00;11.60;99.90
23637;DHT22;11995;50.842;4.456;2022-11-15T00:36:36;11.60;99.90
23637;DHT22;11995;50.842;4.456;2022-11-15T00:39:06;11.70;99.90
23637;DHT22;11995;50.842;4.456;2022-11-15T00:41:34;11.90;99.90
23637;DHT22;11995;50.842;4.456;2022-11-15T00:44:02;11.80;99.90
23637;DHT22;11995;50.842;4.456;2022-11-15T00:46:29;11.70;99.90
23637;DHT22;11995;50.842;4.456;2022-11-15T00:48:56;11.60;99.90
23637;DHT22;11995;50.842;4.456;2022-11-15T00:51:24;11.60;99.90
23637;DHT22;11995;50.842;4.456;2022-11-15T00:53:52;11.50;99.90
23637;DHT22;11995;50.842;4.456;2022-11-15T00:59:06;11.70;99.90
23637;DHT22;11995;50.842;4.456;2022-11-15T01:01:34;11.70;99.90
23637;DHT22;11995;50.842;4.456;2022-11-15T01:04:01;11.70;99.90
23637;DHT22;11995;50.842;4.456;2022-11-15T01:14:25;11.60;99.90
23637;DHT22;11995;50.842;4.456;2022-11-15T01:16:53;11.60;99.90
23637;DHT22;11995;50.842;4.456;2022-11-15T01:19:21;11.70;99.90
23637;DHT22;11995;50.842;4.456;2022-11-15T01:21:49;11.90;99.90
23637;DHT22;11995;50.842;4.456;2022-11-15T01:24:15;11.80;99.90
23637;DHT22;11995;50.842;4.456;2022-11-15T01:26:42;11.90;99.90
23637;DHT22;11995;50.842;4.456;2022-11-15T01:29:09;11.90;99.90
23637;DHT22;11995;50.842;4.456;2022-11-15T01:31:36;11.80;99.90
23637;DHT22;11995;50.842;4.456;2022-11-15T01:34:03;11.90;99.90
23637;DHT22;11995;50.842;4.456;2022-11-15T01:36:30;12.00;99.90
23637;DHT22;11995;50.842;4.456;2022-11-15T01:39:08;12.10;99.90
23637;DHT22;11995;50.842;4.456;2022-11-15T01:41:38;12.00;99.90
23637;DHT22;11995;50.842;4.456;2022-11-15T01:46:53;11.80;99.90
23637;DHT22;11995;50.842;4.456;2022-11-15T01:49:24;11.90;99.90
23637;DHT22;11995;50.842;4.456;2022-11-15T01:51:50;11.90;99.90
23637;DHT22;11995;50.842;4.456;2022-11-15T01:54:19;11.90;99.90
23637;DHT22;11995;50.842;4.456;2022-11-15T01:56:53;11.90;99.90
23637;DHT22;11995;50.842;4.456;2022-11-15T01:59:20;11.90;99.90
23637;DHT22;11995;50.842;4.456;2022-11-15T02:01:48;11.90;99.90
23637;DHT22;11995;50.842;4.456;2022-11-15T02:04:17;11.90;99.90
23637;DHT22;11995;50.842;4.456;2022-11-15T02:06:44;11.90;99.90
23637;DHT22;11995;50.842;4.456;2022-11-15T02:09:13;12.00;99.90
23637;DHT22;11995;50.842;4.456;2022-11-15T02:11:42;12.20;99.90
23637;DHT22;11995;50.842;4.456;2022-11-15T02:14:10;12.10;99.90
23637;DHT22;11995;50.842;4.456;2022-11-15T02:16:43;12.20;99.90
23637;DHT22;11995;50.842;4.456;2022-11-15T02:19:27;12.10;99.90
23637;DHT22;11995;50.842;4.456;2022-11-15T02:24:25;12.10;99.90
23637;DHT22;11995;50.842;4.456;2022-11-15T02:37:28;12.00;99.90
23637;DHT22;11995;50.842;4.456;2022-11-15T02:39:59;12.00;99.90
23637;DHT22;11995;50.842;4.456;2022-11-15T02:42:26;12.10;99.90
23637;DHT22;11995;50.842;4.456;2022-11-15T02:45:17;12.30;99.90
23637;DHT22;11995;50.842;4.456;2022-11-15T02:47:43;12.20;99.90
23637;DHT22;11995;50.842;4.456;2022-11-15T02:50:12;12.00;99.90
23637;DHT22;11995;50.842;4.456;2022-11-15T02:52:40;12.00;99.90
23637;DHT22;11995;50.842;4.456;2022-11-15T02:55:27;12.10;99.90
23637;DHT22;11995;50.842;4.456;2022-11-15T03:00:26;12.10;99.90
23637;DHT22;11995;50.842;4.456;2022-11-15T03:05:46;11.90;99.90
23637;DHT22;11995;50.842;4.456;2022-11-15T03:11:03;12.10;99.90
23637;DHT22;11995;50.842;4.456;2022-11-15T03:16:21;11.90;99.90
23637;DHT22;11995;50.842;4.456;2022-11-15T03:19:25;11.80;99.90
23637;DHT22;11995;50.842;4.456;2022-11-15T03:21:27;11.80;99.90
23637;DHT22;11995;50.842;4.456;2022-11-15T03:23:57;11.80;99.90
23637;DHT22;11995;50.842;4.456;2022-11-15T03:26:28;12.00;99.90
23637;DHT22;11995;50.842;4.456;2022-11-15T03:29:04;12.00;99.90
23637;DHT22;11995;50.842;4.456;2022-11-15T03:31:27;12.00;99.90
23637;DHT22;11995;50.842;4.456;2022-11-15T03:36:57;11.90;99.90
23637;DHT22;11995;50.842;4.456;2022-11-15T03:39:26;11.90;99.90
23637;DHT22;11995;50.842;4.456;2022-11-15T03:47:18;11.80;99.90
23637;DHT22;11995;50.842;4.456;2022-11-15T03:49:46;11.80;99.90
23637;DHT22;11995;50.842;4.456;2022-11-15T03:52:18;11.80;99.90
23637;DHT22;11995;50.842;4.456;2022-11-15T03:54:48;11.80;99.90
23637;DHT22;11995;50.842;4.456;2022-11-15T03:57:17;11.80;99.90
23637;DHT22;11995;50.842;4.456;2022-11-15T03:59:46;11.90;99.90
23637;DHT22;11995;50.842;4.456;2022-11-15T04:02:14;11.80;99.90
23637;DHT22;11995;50.842;4.456;2022-11-15T04:04:41;11.80;99.90
23637;DHT22;11995;50.842;4.456;2022-11-15T04:07:09;11.80;99.90
23637;DHT22;11995;50.842;4.456;2022-11-15T04:09:40;11.90;99.90
23637;DHT22;11995;50.842;4.456;2022-11-15T04:12:24;11.70;99.90
23637;DHT22;11995;50.842;4.456;2022-11-15T04:14:59;11.70;99.90
23637;DHT22;11995;50.842;4.456;2022-11-15T04:17:40;11.70;99.90
23637;DHT22;11995;50.842;4.456;2022-11-15T04:23:03;11.70;99.90
23637;DHT22;11995;50.842;4.456;2022-11-15T04:26:04;11.70;99.90
23637;DHT22;11995;50.842;4.456;2022-11-15T04:28:40;11.70;99.90
23637;DHT22;11995;50.842;4.456;2022-11-15T04:31:24;11.60;99.90
23637;DHT22;11995;50.842;4.456;2022-11-15T04:33:53;11.50;99.90
23637;DHT22;11995;50.842;4.456;2022-11-15T04:36:23;11.70;99.90
23637;DHT22;11995;50.842;4.456;2022-11-15T04:39:08;11.80;99.90
23637;DHT22;11995;50.842;4.456;2022-11-15T04:41:35;11.70;99.90
23637;DHT22;11995;50.842;4.456;2022-11-15T04:44:04;11.60;99.90
23637;DHT22;11995;50.842;4.456;2022-11-15T04:46:33;11.60;99.90
23637;DHT22;11995;50.842;4.456;2022-11-15T04:49:01;11.60;99.90
23637;DHT22;11995;50.842;4.456;2022-11-15T04:51:30;11.50;99.90
23637;DHT22;11995;50.842;4.456;2022-11-15T04:53:58;11.40;99.90
23637;DHT22;11995;50.842;4.456;2022-11-15T04:56:27;11.40;99.90
23637;DHT22;11995;50.842;4.456;2022-11-15T04:58:56;11.50;99.90
23637;DHT22;11995;50.842;4.456;2022-11-15T05:01:24;11.40;99.90
23637;DHT22;11995;50.842;4.456;2022-11-15T05:03:54;11.50;99.90
23637;DHT22;11995;50.842;4.456;2022-11-15T05:06:39;11.20;99.90
23637;DHT22;11995;50.842;4.456;2022-11-15T05:09:09;11.20;99.90
23637;DHT22;11995;50.842;4.456;2022-11-15T05:11:42;11.20;99.90
23637;DHT22;11995;50.842;4.456;2022-11-15T05:14:10;11.20;99.90
23637;DHT22;11995;50.842;4.456;2022-11-15T05:16:43;11.20;99.90
23637;DHT22;11995;50.842;4.456;2022-11-15T05:19:15;11.10;99.90
23637;DHT22;11995;50.842;4.456;2022-11-15T05:21:44;11.00;99.90
23637;DHT22;11995;50.842;4.456;2022-11-15T05:24:11;11.10;99.90
23637;DHT22;11995;50.842;4.456;2022-11-15T05:26:38;11.10;99.90
23637;DHT22;11995;50.842;4.456;2022-11-15T05:29:08;11.10;99.90
23637;DHT22;11995;50.842;4.456;2022-11-15T05:31:38;11.10;99.90
23637;DHT22;11995;50.842;4.456;2022-11-15T05:34:05;11.20;99.90
23637;DHT22;11995;50.842;4.456;2022-11-15T05:36:35;11.10;99.90
23637;DHT22;11995;50.842;4.456;2022-11-15T05:39:05;11.10;99.90
23637;DHT22;11995;50.842;4.456;2022-11-15T05:41:45;11.20;99.90
23637;DHT22;11995;50.842;4.456;2022-11-15T05:44:16;11.20;99.90
23637;DHT22;11995;50.842;4.456;2022-11-15T05:46:43;11.10;99.90
23637;DHT22;11995;50.842;4.456;2022-11-15T05:49:11;11.10;99.90
23637;DHT22;11995;50.842;4.456;2022-11-15T05:51:42;11.10;99.90
23637;DHT22;11995;50.842;4.456;2022-11-15T05:54:10;11.00;99.90
23637;DHT22;11995;50.842;4.456;2022-11-15T05:56:36;11.00;99.90
23637;DHT22;11995;50.842;4.456;2022-11-15T05:59:09;10.90;99.90
23637;DHT22;11995;50.842;4.456;2022-11-15T06:01:37;10.90;99.90
23637;DHT22;11995;50.842;4.456;2022-11-15T06:04:13;10.50;99.90
23637;DHT22;11995;50.842;4.456;2022-11-15T06:06:44;10.40;99.90
23637;DHT22;11995;50.842;4.456;2022-11-15T06:11:45;10.60;99.90
23637;DHT22;11995;50.842;4.456;2022-11-15T06:14:14;10.30;99.90
23637;DHT22;11995;50.842;4.456;2022-11-15T06:16:43;10.30;99.90
23637;DHT22;11995;50.842;4.456;2022-11-15T06:19:14;10.40;99.90
23637;DHT22;11995;50.842;4.456;2022-11-15T06:21:59;10.40;99.90
23637;DHT22;11995;50.842;4.456;2022-11-15T06:24:30;10.40;99.90
23637;DHT22;11995;50.842;4.456;2022-11-15T06:26:59;10.40;99.90
23637;DHT22;11995;50.842;4.456;2022-11-15T06:29:27;10.40;99.90
23637;DHT22;11995;50.842;4.456;2022-11-15T06:31:54;10.30;99.90
23637;DHT22;11995;50.842;4.456;2022-11-15T06:34:27;10.30;99.90
23637;DHT22;11995;50.842;4.456;2022-11-15T06:36:55;10.30;99.90
23637;DHT22;11995;50.842;4.456;2022-11-15T06:39:22;10.30;99.90
23637;DHT22;11995;50.842;4.456;2022-11-15T06:41:49;10.20;99.90
23637;DHT22;11995;50.842;4.456;2022-11-15T06:44:19;10.40;99.90
23637;DHT22;11995;50.842;4.456;2022-11-15T06:46:47;10.30;99.90
23637;DHT22;11995;50.842;4.456;2022-11-15T06:49:14;10.30;99.90
23637;DHT22;11995;50.842;4.456;2022-11-15T06:51:43;10.10;99.90
23637;DHT22;11995;50.842;4.456;2022-11-15T06:54:12;10.10;99.90
23637;DHT22;11995;50.842;4.456;2022-11-15T06:56:51;10.10;99.90
23637;DHT22;11995;50.842;4.456;2022-11-15T06:59:19;10.20;99.90
23637;DHT22;11995;50.842;4.456;2022-11-15T07:01:51;10.10;99.90
23637;DHT22;11995;50.842;4.456;2022-11-15T07:04:17;10.10;99.90
23637;DHT22;11995;50.842;4.456;2022-11-15T07:06:46;10.20;99.90
23637;DHT22;11995;50.842;4.456;2022-11-15T07:09:19;10.10;99.90
23637;DHT22;11995;50.842;4.456;2022-11-15T07:11:54;10.00;99.90
23637;DHT22;11995;50.842;4.456;2022-11-15T07:14:25;10.10;99.90
23637;DHT22;11995;50.842;4.456;2022-11-15T07:16:54;10.10;99.90
23637;DHT22;11995;50.842;4.456;2022-11-15T07:25:26;9.90;99.90
23637;DHT22;11995;50.842;4.456;2022-11-15T07:28:03;9.90;99.90
23637;DHT22;11995;50.842;4.456;2022-11-15T07:30:40;10.00;99.90
23637;DHT22;11995;50.842;4.456;2022-11-15T07:33:08;10.10;99.90
23637;DHT22;11995;50.842;4.456;2022-11-15T07:38:36;10.00;99.90
23637;DHT22;11995;50.842;4.456;2022-11-15T07:41:10;10.00;99.90
23637;DHT22;11995;50.842;4.456;2022-11-15T07:43:48;10.10;99.90
23637;DHT22;11995;50.842;4.456;2022-11-15T07:46:18;10.10;99.90
23637;DHT22;11995;50.842;4.456;2022-11-15T07:48:50;10.10;99.90
23637;DHT22;11995;50.842;4.456;2022-11-15T07:51:22;10.10;99.90
23637;DHT22;11995;50.842;4.456;2022-11-15T07:53:55;10.10;99.90
23637;DHT22;11995;50.842;4.456;2022-11-15T07:59:05;10.10;99.90
23637;DHT22;11995;50.842;4.456;2022-11-15T08:01:33;10.00;99.90
23637;DHT22;11995;50.842;4.456;2022-11-15T08:04:06;10.10;99.90
23637;DHT22;11995;50.842;4.456;2022-11-15T08:06:36;10.10;99.90
23637;DHT22;11995;50.842;4.456;2022-11-15T08:12:11;10.20;99.90
23637;DHT22;11995;50.842;4.456;2022-11-15T08:14:36;10.00;99.90
23637;DHT22;11995;50.842;4.456;2022-11-15T08:17:03;10.10;99.90
23637;DHT22;11995;50.842;4.456;2022-11-15T08:19:35;10.20;99.90
23637;DHT22;11995;50.842;4.456;2022-11-15T08:22:08;10.20;99.90
23637;DHT22;11995;50.842;4.456;2022-11-15T08:24:39;10.20;99.90
23637;DHT22;11995;50.842;4.456;2022-11-15T08:27:09;10.30;99.90
23637;DHT22;11995;50.842;4.456;2022-11-15T08:29:42;10.30;99.90
23637;DHT22;11995;50.842;4.456;2022-11-15T08:32:12;10.40;99.90
23637;DHT22;11995;50.842;4.456;2022-11-15T08:34:48;10.20;99.90
23637;DHT22;11995;50.842;4.456;2022-11-15T08:37:18;10.20;99.90
23637;DHT22;11995;50.842;4.456;2022-11-15T08:39:53;10.30;99.90
23637;DHT22;11995;50.842;4.456;2022-11-15T08:42:23;10.50;99.90
23637;DHT22;11995;50.842;4.456;2022-11-15T08:44:52;10.50;99.90
23637;DHT22;11995;50.842;4.456;2022-11-15T08:50:02;10.40;99.90
23637;DHT22;11995;50.842;4.456;2022-11-15T08:52:32;10.50;99.90
23637;DHT22;11995;50.842;4.456;2022-11-15T08:54:59;10.50;99.90
23637;DHT22;11995;50.842;4.456;2022-11-15T08:57:28;10.50;99.90
23637;DHT22;11995;50.842;4.456;2022-11-15T08:59:56;10.50;99.90
23637;DHT22;11995;50.842;4.456;2022-11-15T09:02:23;10.60;99.90
23637;DHT22;11995;50.842;4.456;2022-11-15T09:04:50;10.60;99.90
23637;DHT22;11995;50.842;4.456;2022-11-15T09:07:17;10.80;99.90
23637;DHT22;11995;50.842;4.456;2022-11-15T09:09:45;10.70;99.90
23637;DHT22;11995;50.842;4.456;2022-11-15T09:12:14;10.70;99.90
23637;DHT22;11995;50.842;4.456;2022-11-15T09:14:41;10.70;99.90
23637;DHT22;11995;50.842;4.456;2022-11-15T09:17:08;10.80;99.90
23637;DHT22;11995;50.842;4.456;2022-11-15T09:19:36;10.90;99.90
23637;DHT22;11995;50.842;4.456;2022-11-15T09:22:05;10.80;99.90
23637;DHT22;11995;50.842;4.456;2022-11-15T09:24:37;11.00;99.90
23637;DHT22;11995;50.842;4.456;2022-11-15T09:27:04;11.00;99.90
23637;DHT22;11995;50.842;4.456;2022-11-15T09:29:31;11.00;99.90
23637;DHT22;11995;50.842;4.456;2022-11-15T09:31:58;10.90;99.90
23637;DHT22;11995;50.842;4.456;2022-11-15T09:34:26;11.00;99.90
23637;DHT22;11995;50.842;4.456;2022-11-15T09:36:52;11.20;99.90
23637;DHT22;11995;50.842;4.456;2022-11-15T09:39:19;11.10;99.90
23637;DHT22;11995;50.842;4.456;2022-11-15T09:44:47;11.10;99.90
23637;DHT22;11995;50.842;4.456;2022-11-15T09:49:58;11.30;99.90
23637;DHT22;11995;50.842;4.456;2022-11-15T09:52:24;11.20;99.90
23637;DHT22;11995;50.842;4.456;2022-11-15T09:54:51;11.30;99.90
23637;DHT22;11995;50.842;4.456;2022-11-15T09:57:22;11.20;99.90
23637;DHT22;11995;50.842;4.456;2022-11-15T09:59:57;11.20;99.90
23637;DHT22;11995;50.842;4.456;2022-11-15T10:02:33;11.30;99.90
23637;DHT22;11995;50.842;4.456;2022-11-15T10:04:51;11.30;99.90
23637;DHT22;11995;50.842;4.456;2022-11-15T10:07:19;11.40;99.90
23637;DHT22;11995;50.842;4.456;2022-11-15T10:09:57;11.50;99.90
23637;DHT22;11995;50.842;4.456;2022-11-15T10:12:18;11.60;99.90
23637;DHT22;11995;50.842;4.456;2022-11-15T10:14:45;11.50;99.90
23637;DHT22;11995;50.842;4.456;2022-11-15T10:19:59;11.30;99.90
23637;DHT22;11995;50.842;4.456;2022-11-15T10:25:39;11.20;99.90
23637;DHT22;11995;50.842;4.456;2022-11-15T10:27:31;11.30;99.90
23637;DHT22;11995;50.842;4.456;2022-11-15T10:29:59;11.40;99.90
23637;DHT22;11995;50.842;4.456;2022-11-15T10:32:25;11.60;99.90
23637;DHT22;11995;50.842;4.456;2022-11-15T10:34:54;11.60;99.90
23637;DHT22;11995;50.842;4.456;2022-11-15T10:37:28;11.70;99.90
23637;DHT22;11995;50.842;4.456;2022-11-15T10:40:05;11.60;99.90
23637;DHT22;11995;50.842;4.456;2022-11-15T10:42:35;11.80;99.90
23637;DHT22;11995;50.842;4.456;2022-11-15T10:45:12;11.70;99.90
23637;DHT22;11995;50.842;4.456;2022-11-15T10:47:32;11.80;99.90
23637;DHT22;11995;50.842;4.456;2022-11-15T10:50:26;11.70;99.90
23637;DHT22;11995;50.842;4.456;2022-11-15T10:52:45;11.80;99.90
23637;DHT22;11995;50.842;4.456;2022-11-15T11:04:07;11.90;99.90
23637;DHT22;11995;50.842;4.456;2022-11-15T11:11:51;12.00;99.90
23637;DHT22;11995;50.842;4.456;2022-11-15T11:17:06;12.00;99.90
23637;DHT22;11995;50.842;4.456;2022-11-15T11:22:19;12.30;99.90
23637;DHT22;11995;50.842;4.456;2022-11-15T11:24:56;12.50;99.90
23637;DHT22;11995;50.842;4.456;2022-11-15T11:27:33;12.50;99.90
23637;DHT22;11995;50.842;4.456;2022-11-15T11:32:48;12.70;99.90
23637;DHT22;11995;50.842;4.456;2022-11-15T11:35:13;12.70;99.90
23637;DHT22;11995;50.842;4.456;2022-11-15T11:37:46;12.80;99.90
23637;DHT22;11995;50.842;4.456;2022-11-15T11:40:24;12.80;99.90
23637;DHT22;11995;50.842;4.456;2022-11-15T11:48:12;12.90;99.90
23637;DHT22;11995;50.842;4.456;2022-11-15T11:50:47;12.90;99.90
23637;DHT22;11995;50.842;4.456;2022-11-15T11:55:57;12.90;99.90
23637;DHT22;11995;50.842;4.456;2022-11-15T11:58:40;12.90;99.90
23637;DHT22;11995;50.842;4.456;2022-11-15T12:01:14;12.90;99.90
23637;DHT22;11995;50.842;4.456;2022-11-15T12:03:42;12.80;99.90
23637;DHT22;11995;50.842;4.456;2022-11-15T12:06:30;12.90;99.90
23637;DHT22;11995;50.842;4.456;2022-11-15T12:17:00;13.10;99.90
23637;DHT22;11995;50.842;4.456;2022-11-15T12:19:27;13.30;99.90
23637;DHT22;11995;50.842;4.456;2022-11-15T12:22:12;13.40;99.90
23637;DHT22;11995;50.842;4.456;2022-11-15T12:24:41;13.30;99.90
23637;DHT22;11995;50.842;4.456;2022-11-15T12:29:56;13.10;99.90
23637;DHT22;11995;50.842;4.456;2022-11-15T12:32:26;13.10;99.90
23637;DHT22;11995;50.842;4.456;2022-11-15T12:34:54;13.30;99.90
23637;DHT22;11995;50.842;4.456;2022-11-15T12:42:42;13.10;99.90
23637;DHT22;11995;50.842;4.456;2022-11-15T12:45:54;13.10;99.90
23637;DHT22;11995;50.842;4.456;2022-11-15T12:47:37;13.00;99.90
23637;DHT22;11995;50.842;4.456;2022-11-15T12:50:04;13.10;99.90
23637;DHT22;11995;50.842;4.456;2022-11-15T12:52:31;13.20;99.90
23637;DHT22;11995;50.842;4.456;2022-11-15T12:55:00;13.10;99.90
23637;DHT22;11995;50.842;4.456;2022-11-15T12:57:30;13.10;99.90
23637;DHT22;11995;50.842;4.456;2022-11-15T12:59:57;13.40;99.90
23637;DHT22;11995;50.842;4.456;2022-11-15T13:02:29;13.60;99.90
23637;DHT22;11995;50.842;4.456;2022-11-15T13:17:48;13.50;99.90
23637;DHT22;11995;50.842;4.456;2022-11-15T13:20:20;13.70;99.90
23637;DHT22;11995;50.842;4.456;2022-11-15T13:25:48;13.50;99.90
23637;DHT22;11995;50.842;4.456;2022-11-15T13:30:52;13.10;99.90
23637;DHT22;11995;50.842;4.456;2022-11-15T13:33:24;13.20;99.90
23637;DHT22;11995;50.842;4.456;2022-11-15T13:35:54;13.40;99.90
23637;DHT22;11995;50.842;4.456;2022-11-15T13:40:53;13.40;99.90
23637;DHT22;11995;50.842;4.456;2022-11-15T13:48:38;13.40;99.90
23637;DHT22;11995;50.842;4.456;2022-11-15T13:51:12;13.20;99.90
23637;DHT22;11995;50.842;4.456;2022-11-15T13:53:37;13.20;99.90
23637;DHT22;11995;50.842;4.456;2022-11-15T13:56:08;13.20;99.90
23637;DHT22;11995;50.842;4.456;2022-11-15T13:58:36;13.30;99.90
23637;DHT22;11995;50.842;4.456;2022-11-15T14:01:03;13.50;99.90
23637;DHT22;11995;50.842;4.456;2022-11-15T14:03:46;13.60;99.90
23637;DHT22;11995;50.842;4.456;2022-11-15T14:06:03;13.40;99.90
23637;DHT22;11995;50.842;4.456;2022-11-15T14:08:32;13.40;99.90
23637;DHT22;11995;50.842;4.456;2022-11-15T14:11:07;13.30;99.90
23637;DHT22;11995;50.842;4.456;2022-11-15T14:13:34;13.10;99.90
23637;DHT22;11995;50.842;4.456;2022-11-15T14:16:14;13.30;99.90
23637;DHT22;11995;50.842;4.456;2022-11-15T14:18:43;13.40;99.90
23637;DHT22;11995;50.842;4.456;2022-11-15T14:21:10;13.60;99.90
23637;DHT22;11995;50.842;4.456;2022-11-15T14:23:37;13.40;99.90
23637;DHT22;11995;50.842;4.456;2022-11-15T14:26:05;13.50;99.90
23637;DHT22;11995;50.842;4.456;2022-11-15T14:28:33;13.60;99.90
23637;DHT22;11995;50.842;4.456;2022-11-15T14:31:01;13.40;99.90
23637;DHT22;11995;50.842;4.456;2022-11-15T14:33:29;13.30;99.90
23637;DHT22;11995;50.842;4.456;2022-11-15T14:36:10;13.40;99.90
23637;DHT22;11995;50.842;4.456;2022-11-15T14:38:26;13.40;99.90
23637;DHT22;11995;50.842;4.456;2022-11-15T14:40:53;13.30;99.90
23637;DHT22;11995;50.842;4.456;2022-11-15T14:43:22;13.30;99.90
23637;DHT22;11995;50.842;4.456;2022-11-15T14:45:49;13.30;99.90
23637;DHT22;11995;50.842;4.456;2022-11-15T14:48:19;13.10;99.90
23637;DHT22;11995;50.842;4.456;2022-11-15T14:50:45;13.30;99.90
23637;DHT22;11995;50.842;4.456;2022-11-15T14:53:17;13.20;99.90
23637;DHT22;11995;50.842;4.456;2022-11-15T14:55:41;13.20;99.90
23637;DHT22;11995;50.842;4.456;2022-11-15T14:58:08;13.20;99.90
23637;DHT22;11995;50.842;4.456;2022-11-15T15:00:39;13.20;99.90
23637;DHT22;11995;50.842;4.456;2022-11-15T15:03:06;13.20;99.90
23637;DHT22;11995;50.842;4.456;2022-11-15T15:05:34;13.20;99.90
23637;DHT22;11995;50.842;4.456;2022-11-15T15:08:08;13.10;99.90
23637;DHT22;11995;50.842;4.456;2022-11-15T15:10:40;13.10;99.90
23637;DHT22;11995;50.842;4.456;2022-11-15T15:13:28;13.20;99.90
23637;DHT22;11995;50.842;4.456;2022-11-15T15:15:36;13.10;99.90
23637;DHT22;11995;50.842;4.456;2022-11-15T15:18:04;13.10;99.90
23637;DHT22;11995;50.842;4.456;2022-11-15T15:20:33;13.20;99.90
23637;DHT22;11995;50.842;4.456;2022-11-15T15:23:02;13.10;99.90
23637;DHT22;11995;50.842;4.456;2022-11-15T15:25:34;12.90;99.90
23637;DHT22;11995;50.842;4.456;2022-11-15T15:27:58;13.10;99.90
23637;DHT22;11995;50.842;4.456;2022-11-15T15:30:27;13.20;99.90
23637;DHT22;11995;50.842;4.456;2022-11-15T15:32:54;12.90;99.90
23637;DHT22;11995;50.842;4.456;2022-11-15T15:35:21;12.70;99.90
23637;DHT22;11995;50.842;4.456;2022-11-15T15:37:48;13.00;99.90
23637;DHT22;11995;50.842;4.456;2022-11-15T15:40:16;13.00;99.90
23637;DHT22;11995;50.842;4.456;2022-11-15T15:42:43;13.10;99.90
23637;DHT22;11995;50.842;4.456;2022-11-15T15:45:11;12.90;99.90
23637;DHT22;11995;50.842;4.456;2022-11-15T15:47:38;12.80;99.90
23637;DHT22;11995;50.842;4.456;2022-11-15T15:52:45;12.80;99.90
23637;DHT22;11995;50.842;4.456;2022-11-15T15:55:12;12.90;99.90
23637;DHT22;11995;50.842;4.456;2022-11-15T15:57:39;12.90;99.90
23637;DHT22;11995;50.842;4.456;2022-11-15T16:00:06;12.70;99.90
23637;DHT22;11995;50.842;4.456;2022-11-15T16:02:33;12.60;99.90
23637;DHT22;11995;50.842;4.456;2022-11-15T16:05:02;12.70;99.90
23637;DHT22;11995;50.842;4.456;2022-11-15T16:07:28;12.80;99.90
23637;DHT22;11995;50.842;4.456;2022-11-15T16:09:57;12.70;99.90
23637;DHT22;11995;50.842;4.456;2022-11-15T16:12:31;12.70;99.90
23637;DHT22;11995;50.842;4.456;2022-11-15T16:14:57;12.70;99.90
23637;DHT22;11995;50.842;4.456;2022-11-15T16:17:26;12.70;99.90
23637;DHT22;11995;50.842;4.456;2022-11-15T16:19:53;12.60;99.90
23637;DHT22;11995;50.842;4.456;2022-11-15T16:22:26;12.80;99.90
23637;DHT22;11995;50.842;4.456;2022-11-15T16:24:49;12.70;99.90
23637;DHT22;11995;50.842;4.456;2022-11-15T16:27:17;12.70;99.90
23637;DHT22;11995;50.842;4.456;2022-11-15T16:29:45;12.60;99.90
23637;DHT22;11995;50.842;4.456;2022-11-15T16:32:12;12.50;99.90
23637;DHT22;11995;50.842;4.456;2022-11-15T16:34:39;12.70;99.90
23637;DHT22;11995;50.842;4.456;2022-11-15T16:37:14;12.70;99.90
23637;DHT22;11995;50.842;4.456;2022-11-15T16:39:35;12.40;99.90
23637;DHT22;11995;50.842;4.456;2022-11-15T16:42:02;12.40;99.90
23637;DHT22;11995;50.842;4.456;2022-11-15T16:44:30;12.60;99.90
23637;DHT22;11995;50.842;4.456;2022-11-15T16:46:57;12.60;99.90
23637;DHT22;11995;50.842;4.456;2022-11-15T16:49:24;12.50;99.90
23637;DHT22;11995;50.842;4.456;2022-11-15T16:51:51;12.40;99.90
23637;DHT22;11995;50.842;4.456;2022-11-15T16:54:18;12.50;99.90
23637;DHT22;11995;50.842;4.456;2022-11-15T16:56:45;12.50;99.90
23637;DHT22;11995;50.842;4.456;2022-11-15T16:59:16;12.60;99.90
23637;DHT22;11995;50.842;4.456;2022-11-15T17:01:43;12.50;99.90
23637;DHT22;11995;50.842;4.456;2022-11-15T17:04:14;12.40;99.90
23637;DHT22;11995;50.842;4.456;2022-11-15T17:06:43;12.50;99.90
23637;DHT22;11995;50.842;4.456;2022-11-15T17:09:15;12.50;99.90
23637;DHT22;11995;50.842;4.456;2022-11-15T17:11:39;12.50;99.90
23637;DHT22;11995;50.842;4.456;2022-11-15T17:14:06;12.60;99.90
23637;DHT22;11995;50.842;4.456;2022-11-15T17:16:33;12.60;99.90
23637;DHT22;11995;50.842;4.456;2022-11-15T17:19:01;12.60;99.90
23637;DHT22;11995;50.842;4.456;2022-11-15T17:21:28;12.80;99.90
23637;DHT22;11995;50.842;4.456;2022-11-15T17:23:55;12.70;99.90
23637;DHT22;11995;50.842;4.456;2022-11-15T17:26:23;12.70;99.90
23637;DHT22;11995;50.842;4.456;2022-11-15T17:28:53;12.70;99.90
23637;DHT22;11995;50.842;4.456;2022-11-15T17:31:19;12.70;99.90
23637;DHT22;11995;50.842;4.456;2022-11-15T17:33:46;12.80;99.90
23637;DHT22;11995;50.842;4.456;2022-11-15T17:36:13;12.80;99.90
23637;DHT22;11995;50.842;4.456;2022-11-15T17:38:42;12.80;99.90
23637;DHT22;11995;50.842;4.456;2022-11-15T17:41:11;12.60;99.90
23637;DHT22;11995;50.842;4.456;2022-11-15T17:43:42;12.50;99.90
23637;DHT22;11995;50.842;4.456;2022-11-15T17:46:06;12.60;99.90
23637;DHT22;11995;50.842;4.456;2022-11-15T17:48:33;12.60;99.90
23637;DHT22;11995;50.842;4.456;2022-11-15T17:51:01;12.60;99.90
23637;DHT22;11995;50.842;4.456;2022-11-15T17:53:37;12.60;99.90
23637;DHT22;11995;50.842;4.456;2022-11-15T17:56:02;12.60;99.90
23637;DHT22;11995;50.842;4.456;2022-11-15T18:03:40;12.70;99.90
23637;DHT22;11995;50.842;4.456;2022-11-15T18:06:08;12.70;99.90
23637;DHT22;11995;50.842;4.456;2022-11-15T18:08:36;12.70;99.90
23637;DHT22;11995;50.842;4.456;2022-11-15T18:11:06;12.50;99.90
23637;DHT22;11995;50.842;4.456;2022-11-15T18:13:40;12.70;99.90
23637;DHT22;11995;50.842;4.456;2022-11-15T18:16:11;12.80;99.90
23637;DHT22;11995;50.842;4.456;2022-11-15T18:18:39;12.80;99.90
23637;DHT22;11995;50.842;4.456;2022-11-15T18:21:10;12.60;99.90
23637;DHT22;11995;50.842;4.456;2022-11-15T18:23:38;12.40;99.90
23637;DHT22;11995;50.842;4.456;2022-11-15T18:26:06;12.50;99.90
23637;DHT22;11995;50.842;4.456;2022-11-15T18:28:34;12.40;99.90
23637;DHT22;11995;50.842;4.456;2022-11-15T18:31:02;12.50;99.90